Impacts METAR Board INFO
IDs:

KPHX - Phoenix/Sky Harbor, AZ, US

Updated at: 1709 UTC 20 Jan 2018
Potential Impact None Slight Moderate High
Time20/05Z 20/06Z 20/07Z 20/08Z 20/09Z 20/10Z 20/11Z 20/12Z 20/13Z 20/14Z 20/15Z 20/16Z 20/17Z
VIS10 10 10 10 10 10 10 10 10 10 10 10 10
CIG-- -- -- -- -- -- -- -- 250 250 120 120 120
CoverCLRCLRCLRCLRCLRFEWSCTSCTBKNBKNBKNBKNBKN
FltCatVFRVFRVFRVFRVFRVFRVFRVFRVFRVFRVFRVFRVFR
WX--------------------------
WDir100010090909012013014000260270
WSpd4 0 9 8 7 8 7 11 10 0 0 10 9
WGst-- -- -- -- -- -- -- -- -- -- -- -- --
Raw hourly METARs
KPHX 200451Z 10004KT 10SM CLR 16/01 A2984 RMK AO2 SLP095 T01560011
KPHX 200551Z 00000KT 10SM CLR 16/01 A2984 RMK AO2 SLP096 T01560006 10239 20150 53001
KPHX 200651Z 10009KT 10SM CLR 15/M01 A2983 RMK AO2 SLP092 T01501011 402500089
KPHX 200751Z 09008KT 10SM CLR 13/00 A2982 RMK AO2 SLP088 T01330000
KPHX 200851Z 09007KT 10SM CLR 13/M02 A2982 RMK AO2 SLP088 T01281017 56007
KPHX 200951Z 09008KT 10SM FEW250 12/M01 A2981 RMK AO2 SLP084 T01221011
KPHX 201051Z 12007KT 10SM SCT100 SCT250 13/M02 A2981 RMK AO2 SLP083 T01331017
KPHX 201151Z 13011KT 10SM FEW100 FEW120 SCT250 14/M02 A2980 RMK AO2 SLP080 T01441022 10156 20117 56007
KPHX 201251Z 14010KT 10SM SCT110 SCT130 BKN250 14/M02 A2980 RMK AO2 SLP081 T01441022
KPHX 201351Z 00000KT 10SM SCT120 BKN250 14/M02 A2983 RMK AO2 SLP092 T01391017
KPHX 201451Z 00000KT 10SM SCT060 BKN120 BKN250 14/01 A2984 RMK AO2 SLP096 T01390006 53014
KPHX 201551Z 26010KT 10SM SCT060 BKN120 BKN250 16/05 A2987 RMK AO2 SLP106 T01560050
KPHX 201651Z 27009KT 10SM SCT055 BKN120 BKN250 15/05 A2990 RMK AO2 SLP116 T01500050